createdAt,value
2022-11-06T00:00:08.100Z,9.07
2022-11-06T00:05:50.059Z,9.84
2022-11-06T00:10:54.205Z,10.21
2022-11-06T00:16:03.735Z,10.60
2022-11-06T00:21:09.081Z,9.75
2022-11-06T00:26:16.001Z,9.90
2022-11-06T00:31:23.139Z,9.59
2022-11-06T00:36:30.394Z,9.53
2022-11-06T00:41:34.396Z,10.88
2022-11-06T00:46:39.867Z,10.02
2022-11-06T00:51:44.140Z,10.23
2022-11-06T00:56:48.211Z,10.37
2022-11-06T01:01:53.567Z,10.65
2022-11-06T01:06:58.201Z,11.13
2022-11-06T01:12:17.668Z,9.60
2022-11-06T01:17:22.909Z,9.60
2022-11-06T01:22:27.080Z,9.25
2022-11-06T01:27:31.176Z,10.73
2022-11-06T01:32:37.028Z,10.82
2022-11-06T01:37:40.658Z,10.39
2022-11-06T01:42:44.505Z,9.48
2022-11-06T01:47:50.070Z,10.97
2022-11-06T01:52:54.170Z,10.70
2022-11-06T01:57:59.162Z,11.41
2022-11-06T02:03:05.401Z,11.11
2022-11-06T02:08:12.293Z,10.75
2022-11-06T02:13:23.678Z,10.39
2022-11-06T02:18:49.399Z,10.82
2022-11-06T02:24:19.962Z,10.83
2022-11-06T02:29:30.735Z,10.31
2022-11-06T02:34:38.656Z,11.01
2022-11-06T02:39:46.886Z,10.33
2022-11-06T02:44:56.288Z,9.19
2022-11-06T02:50:05.896Z,8.74
2022-11-06T02:55:15.354Z,8.84
2022-11-06T03:00:22.215Z,8.49
2022-11-06T03:05:31.942Z,8.58
2022-11-06T03:10:43.763Z,8.43
2022-11-06T03:16:01.747Z,8.38
2022-11-06T03:21:14.624Z,8.32
2022-11-06T03:26:23.062Z,8.01
2022-11-06T03:31:32.610Z,8.15
2022-11-06T03:36:42.138Z,7.69
2022-11-06T03:41:51.198Z,7.98
2022-11-06T03:47:03.273Z,9.21
2022-11-06T03:52:12.668Z,10.01
2022-11-06T03:57:22.794Z,10.48
2022-11-06T04:02:31.623Z,10.65
2022-11-06T04:07:41.093Z,9.78
2022-11-06T04:13:07.035Z,9.47
2022-11-06T04:18:18.307Z,9.68
2022-11-06T04:23:37.672Z,10.10
2022-11-06T04:28:50.377Z,9.19
2022-11-06T04:34:00.490Z,8.95
2022-11-06T04:39:13.183Z,8.65
2022-11-06T04:44:25.076Z,8.28
2022-11-06T04:49:33.673Z,8.61
2022-11-06T04:54:37.882Z,8.31
2022-11-06T04:59:41.848Z,8.50
2022-11-06T05:04:47.021Z,8.30
2022-11-06T05:09:52.009Z,8.07
2022-11-06T05:14:55.804Z,7.98
2022-11-06T05:20:01.192Z,8.12
2022-11-06T05:25:05.474Z,7.98
2022-11-06T05:30:10.912Z,8.12
2022-11-06T05:35:16.468Z,7.95
2022-11-06T05:40:20.428Z,7.86
2022-11-06T05:45:24.366Z,8.06
2022-11-06T05:50:29.773Z,8.16
2022-11-06T05:55:40.818Z,8.34
2022-11-06T06:00:44.696Z,8.49
2022-11-06T06:05:50.359Z,8.60
2022-11-06T06:10:54.369Z,8.37
2022-11-06T06:16:02.621Z,8.39
2022-11-06T06:21:08.026Z,8.40
2022-11-06T06:26:12.127Z,8.08
2022-11-06T06:31:16.247Z,8.37
2022-11-06T06:36:21.637Z,8.16
2022-11-06T06:41:25.877Z,8.16
2022-11-06T06:46:29.785Z,8.16
2022-11-06T06:51:35.295Z,8.34
2022-11-06T06:56:39.229Z,8.69
2022-11-06T07:01:43.207Z,8.77
2022-11-06T07:06:48.648Z,9.03
2022-11-06T07:11:52.625Z,8.49
2022-11-06T07:16:56.521Z,8.49
2022-11-06T07:22:01.809Z,8.46
2022-11-06T07:27:05.914Z,8.78
2022-11-06T07:32:10.341Z,8.74
2022-11-06T07:37:15.899Z,9.53
2022-11-06T07:42:19.810Z,9.27
2022-11-06T07:47:42.535Z,8.89
2022-11-06T07:52:47.817Z,8.67
2022-11-06T07:57:51.738Z,9.55
2022-11-06T08:02:56.506Z,9.03
2022-11-06T08:08:01.753Z,9.94
2022-11-06T08:13:05.655Z,10.07
2022-11-06T08:18:10.726Z,10.12
2022-11-06T08:23:16.318Z,10.23
2022-11-06T08:28:20.143Z,9.43
2022-11-06T08:33:25.520Z,9.93
2022-11-06T08:38:30.819Z,9.16
2022-11-06T08:43:34.971Z,8.86
2022-11-06T08:48:39.194Z,9.68
2022-11-06T08:53:44.585Z,10.17
2022-11-06T08:58:52.926Z,9.49
2022-11-06T09:03:59.370Z,9.32
2022-11-06T09:09:04.842Z,8.59
2022-11-06T09:14:08.695Z,8.82
2022-11-06T09:19:12.496Z,9.22
2022-11-06T09:24:24.019Z,9.65
2022-11-06T09:29:44.116Z,9.62
2022-11-06T09:34:48.012Z,8.99
2022-11-06T09:39:53.269Z,8.86
2022-11-06T09:45:04.726Z,8.95
2022-11-06T09:50:17.095Z,9.15
2022-11-06T09:55:26.575Z,9.26
2022-11-06T10:00:31.466Z,9.88
2022-11-06T10:05:38.114Z,9.50
2022-11-06T10:10:51.289Z,10.01
2022-11-06T10:16:03.471Z,10.00
2022-11-06T10:21:12.745Z,9.83
2022-11-06T10:26:19.785Z,9.57
2022-11-06T10:31:33.273Z,9.08
2022-11-06T10:36:48.686Z,9.50
2022-11-06T10:42:03.805Z,9.40
2022-11-06T10:47:17.148Z,9.10
2022-11-06T10:52:34.814Z,9.19
2022-11-06T10:57:47.921Z,9.98
2022-11-06T11:02:56.910Z,9.93
2022-11-06T11:08:00.729Z,10.20
2022-11-06T11:13:08.735Z,10.25
2022-11-06T11:18:23.406Z,9.80
2022-11-06T11:23:28.405Z,10.13
2022-11-06T11:28:35.525Z,10.28
2022-11-06T11:33:41.129Z,10.95
2022-11-06T11:38:46.071Z,10.37
2022-11-06T11:44:05.186Z,11.09
2022-11-06T11:49:27.408Z,10.56
2022-11-06T11:54:34.583Z,10.00
2022-11-06T11:59:45.847Z,10.46
2022-11-06T12:04:53.637Z,9.87
2022-11-06T12:09:59.959Z,9.47
2022-11-06T12:15:17.894Z,9.31
2022-11-06T12:20:27.449Z,9.70
2022-11-06T12:25:37.228Z,10.13
2022-11-06T12:30:45.056Z,10.27
2022-11-06T12:35:53.528Z,10.18
2022-11-06T12:41:03.788Z,9.88
2022-11-06T12:46:22.113Z,9.66
2022-11-06T12:51:36.965Z,9.73
2022-11-06T12:56:51.901Z,9.66
2022-11-06T13:02:12.114Z,10.17
2022-11-06T13:07:38.234Z,11.14
2022-11-06T13:12:46.268Z,10.55
2022-11-06T13:17:57.083Z,10.95
2022-11-06T13:23:09.308Z,10.19
2022-11-06T13:28:26.276Z,9.97
2022-11-06T13:33:35.952Z,11.16
2022-11-06T13:38:46.875Z,11.41
2022-11-06T13:43:57.094Z,11.05
2022-11-06T13:49:14.718Z,11.67
2022-11-06T13:54:40.124Z,10.37
2022-11-06T14:00:14.266Z,10.90
2022-11-06T14:05:43.834Z,11.32
2022-11-06T14:10:54.832Z,10.99
2022-11-06T14:16:25.295Z,10.66
2022-11-06T14:21:46.084Z,11.06
2022-11-06T14:26:51.317Z,11.02
2022-11-06T14:32:02.072Z,11.05
2022-11-06T14:37:38.484Z,10.51
2022-11-06T14:42:45.058Z,10.26
2022-11-06T14:47:54.676Z,10.54
2022-11-06T14:53:02.534Z,10.05
2022-11-06T14:58:22.489Z,9.89
2022-11-06T15:03:32.515Z,9.89
2022-11-06T15:09:01.020Z,10.03
2022-11-06T15:14:38.059Z,9.52
2022-11-06T15:19:46.763Z,10.09
2022-11-06T15:24:55.896Z,10.22
2022-11-06T15:30:04.858Z,10.63
2022-11-06T15:35:17.047Z,9.83
2022-11-06T15:40:27.210Z,9.93
2022-11-06T15:45:31.216Z,10.33
2022-11-06T15:50:37.722Z,10.79
2022-11-06T15:55:45.074Z,10.20
2022-11-06T16:00:50.219Z,10.64
2022-11-06T16:05:58.670Z,10.53
2022-11-06T16:11:07.003Z,10.21
2022-11-06T16:16:34.121Z,9.78
2022-11-06T16:21:39.446Z,10.47
2022-11-06T16:26:48.729Z,10.95
2022-11-06T16:32:01.320Z,10.48
2022-11-06T16:37:08.744Z,10.33
2022-11-06T16:42:35.792Z,9.64
2022-11-06T16:47:40.652Z,9.47
2022-11-06T16:52:54.772Z,9.40
2022-11-06T16:58:01.421Z,9.31
2022-11-06T17:03:09.718Z,9.32
2022-11-06T17:08:24.930Z,9.14
2022-11-06T17:13:30.238Z,9.51
2022-11-06T17:18:37.031Z,9.04
2022-11-06T17:23:42.258Z,10.17
2022-11-06T17:28:46.180Z,10.39
2022-11-06T17:33:49.939Z,10.27
2022-11-06T17:38:56.361Z,10.49
2022-11-06T17:44:04.234Z,10.91
2022-11-06T17:49:15.794Z,9.86
2022-11-06T17:54:25.448Z,9.67
2022-11-06T17:59:29.658Z,10.33
2022-11-06T18:04:34.373Z,9.49
2022-11-06T18:09:39.706Z,10.16
2022-11-06T18:14:43.467Z,9.93
2022-11-06T18:19:47.529Z,10.47
2022-11-06T18:24:53.415Z,10.92
2022-11-06T18:29:57.771Z,10.55
2022-11-06T18:35:05.008Z,10.91
2022-11-06T18:40:12.135Z,10.60
2022-11-06T18:45:16.313Z,10.49
2022-11-06T18:50:20.310Z,9.89
2022-11-06T18:55:25.725Z,9.83
2022-11-06T19:00:29.823Z,9.31
2022-11-06T19:05:34.408Z,9.63
2022-11-06T19:10:39.968Z,10.37
2022-11-06T19:15:44.229Z,9.92
2022-11-06T19:20:47.978Z,10.58
2022-11-06T19:26:04.509Z,11.18
2022-11-06T19:31:17.471Z,10.64
2022-11-06T19:36:21.340Z,10.13
2022-11-06T19:41:26.989Z,10.54
2022-11-06T19:46:35.696Z,10.55
2022-11-06T19:56:30.508Z,10.86
2022-11-06T20:01:34.860Z,10.41
2022-11-06T20:06:40.050Z,9.95
2022-11-06T20:11:45.611Z,9.72
2022-11-06T20:16:49.881Z,10.59
2022-11-06T20:21:53.663Z,10.93
2022-11-06T20:27:01.015Z,10.06
2022-11-06T20:32:05.066Z,10.22
2022-11-06T20:37:09.203Z,10.18
2022-11-06T20:42:14.406Z,11.03
2022-11-06T20:47:18.464Z,10.92
2022-11-06T20:52:22.574Z,10.94
2022-11-06T20:57:28.178Z,10.78
2022-11-06T21:02:32.193Z,9.97
2022-11-06T21:07:36.375Z,9.45
2022-11-06T21:12:41.940Z,9.46
2022-11-06T21:17:46.019Z,9.59
2022-11-06T21:22:50.155Z,9.80
2022-11-06T21:27:55.618Z,9.15
2022-11-06T21:32:59.747Z,9.47
2022-11-06T21:38:03.734Z,9.68
2022-11-06T21:43:09.156Z,10.11
2022-11-06T21:48:40.727Z,10.01
2022-11-06T21:53:55.890Z,9.25
2022-11-06T21:59:03.131Z,9.85
2022-11-06T22:04:07.990Z,11.04
2022-11-06T22:09:13.433Z,10.87
2022-11-06T22:14:19.035Z,10.78
2022-11-06T22:19:23.090Z,11.06
2022-11-06T22:24:28.916Z,10.83
2022-11-06T22:29:34.764Z,11.00
2022-11-06T22:34:38.716Z,11.32
2022-11-06T22:39:42.672Z,11.06
2022-11-06T22:44:48.140Z,10.99
2022-11-06T22:49:52.337Z,11.15
2022-11-06T22:54:56.197Z,10.89
2022-11-06T23:00:01.524Z,10.73
2022-11-06T23:05:05.827Z,10.53
2022-11-06T23:10:10.663Z,11.03
2022-11-06T23:15:16.089Z,10.42
2022-11-06T23:20:20.670Z,11.08
2022-11-06T23:25:24.607Z,11.35
2022-11-06T23:30:31.113Z,11.06
2022-11-06T23:35:35.033Z,11.36
2022-11-06T23:40:38.851Z,10.99
2022-11-06T23:45:50.026Z,11.06
2022-11-06T23:50:53.874Z,10.93
2022-11-06T23:55:57.686Z,10.71
